createdAt,value
2018-07-13T00:00:53.926Z,19.20
2018-07-13T00:03:25.922Z,16.00
2018-07-13T00:05:58.524Z,15.00
2018-07-13T00:08:32.293Z,17.80
2018-07-13T00:11:05.126Z,15.20
2018-07-13T00:13:45.479Z,17.00
2018-07-13T00:16:18.172Z,16.80
2018-07-13T00:18:50.824Z,17.80
2018-07-13T00:21:23.854Z,17.20
2018-07-13T00:23:56.197Z,18.00
2018-07-13T00:26:28.550Z,15.80
2018-07-13T00:29:01.157Z,17.60
2018-07-13T00:31:33.643Z,19.00
2018-07-13T00:34:05.675Z,18.00
2018-07-13T00:36:38.738Z,18.20
2018-07-13T00:39:13.931Z,17.60
2018-07-13T00:41:46.427Z,17.00
2018-07-13T00:44:19.536Z,17.80
2018-07-13T00:46:51.968Z,20.00
2018-07-13T00:49:24.918Z,17.40
2018-07-13T00:51:57.505Z,15.80
2018-07-13T00:54:30.155Z,16.00
2018-07-13T00:57:03.210Z,18.60
2018-07-13T00:59:35.326Z,18.20
2018-07-13T01:02:07.735Z,17.20
2018-07-13T01:04:39.813Z,16.60
2018-07-13T01:07:12.804Z,17.40
2018-07-13T01:09:45.900Z,20.00
2018-07-13T01:12:18.176Z,17.80
2018-07-13T01:14:50.542Z,17.80
2018-07-13T01:17:27.048Z,20.00
2018-07-13T01:19:59.376Z,20.60
2018-07-13T01:22:32.031Z,19.20
2018-07-13T01:25:04.965Z,18.40
2018-07-13T01:27:37.300Z,19.40
2018-07-13T01:30:10.102Z,17.20
2018-07-13T01:32:42.484Z,21.40
2018-07-13T01:35:15.469Z,18.80
2018-07-13T01:37:47.990Z,19.60
2018-07-13T01:40:20.254Z,20.00
2018-07-13T01:42:53.142Z,19.80
2018-07-13T01:45:25.606Z,19.00
2018-07-13T01:47:58.181Z,20.00
2018-07-13T01:50:30.338Z,21.60
2018-07-13T01:53:03.022Z,19.80
2018-07-13T01:55:35.727Z,19.40
2018-07-13T01:58:08.801Z,19.80
2018-07-13T02:00:41.807Z,19.60
2018-07-13T02:03:13.939Z,15.00
2018-07-13T02:05:46.185Z,18.00
2018-07-13T02:08:18.533Z,20.00
2018-07-13T02:10:50.895Z,24.00
2018-07-13T02:13:23.827Z,26.20
2018-07-13T02:15:56.012Z,26.20
2018-07-13T02:18:28.641Z,24.60
2018-07-13T02:21:01.237Z,28.20
2018-07-13T02:23:33.677Z,28.00
2018-07-13T02:26:06.720Z,30.40
2018-07-13T02:28:38.745Z,30.60
2018-07-13T02:31:11.284Z,31.00
2018-07-13T02:33:43.821Z,29.00
2018-07-13T02:36:15.881Z,33.80
2018-07-13T02:38:48.272Z,31.80
2018-07-13T02:41:20.450Z,29.80
2018-07-13T02:43:52.968Z,32.00
2018-07-13T02:46:25.770Z,33.20
2018-07-13T02:48:58.265Z,32.00
2018-07-13T02:51:31.256Z,30.00
2018-07-13T02:54:03.356Z,30.20
2018-07-13T02:56:36.022Z,33.20
2018-07-13T02:59:08.111Z,32.20
2018-07-13T03:01:40.529Z,32.00
2018-07-13T03:04:13.644Z,30.20
2018-07-13T03:06:47.247Z,31.20
2018-07-13T03:09:19.646Z,34.20
2018-07-13T03:11:52.968Z,30.00
2018-07-13T03:14:26.135Z,30.20
2018-07-13T03:16:57.729Z,33.20
2018-07-13T03:19:30.130Z,28.80
2018-07-13T03:22:02.975Z,29.40
2018-07-13T03:24:35.365Z,31.20
2018-07-13T03:27:07.905Z,31.20
2018-07-13T03:29:40.852Z,29.00
2018-07-13T03:32:13.757Z,30.40
2018-07-13T03:34:46.049Z,28.40
2018-07-13T03:37:18.295Z,30.00
2018-07-13T03:39:49.968Z,28.60
2018-07-13T03:42:21.616Z,30.20
2018-07-13T03:44:54.167Z,29.60
2018-07-13T03:47:26.403Z,29.60
2018-07-13T03:49:59.807Z,31.00
2018-07-13T03:52:32.819Z,31.20
2018-07-13T03:55:06.096Z,31.40
2018-07-13T03:57:38.258Z,33.20
2018-07-13T04:00:11.034Z,29.20
2018-07-13T04:02:43.744Z,30.60
2018-07-13T04:05:17.019Z,32.20
2018-07-13T04:07:49.332Z,32.60
2018-07-13T04:10:22.462Z,33.00
2018-07-13T04:12:54.725Z,29.00
2018-07-13T04:15:27.299Z,31.40
2018-07-13T04:18:00.023Z,18.20
2018-07-13T04:20:32.400Z,21.40
2018-07-13T04:23:05.144Z,21.40
2018-07-13T04:25:38.273Z,23.00
2018-07-13T04:28:11.076Z,23.80
2018-07-13T04:30:45.417Z,25.20
2018-07-13T04:33:17.964Z,28.20
2018-07-13T04:35:50.801Z,30.40
2018-07-13T04:38:23.227Z,30.00
2018-07-13T04:40:55.931Z,29.40
2018-07-13T04:43:28.473Z,31.00
2018-07-13T04:46:36.137Z,33.40
2018-07-13T04:52:45.194Z,29.00
2018-07-13T04:55:54.894Z,28.40
2018-07-13T05:07:56.944Z,24.00
2018-07-13T05:13:55.852Z,22.60
2018-07-13T05:16:51.179Z,24.00
2018-07-13T05:19:51.865Z,24.00
2018-07-13T05:22:54.692Z,24.00
2018-07-13T05:25:57.013Z,22.20
2018-07-13T05:35:04.542Z,23.00
2018-07-13T05:38:00.927Z,20.00
2018-07-13T05:46:44.719Z,19.80
2018-07-13T05:49:28.359Z,21.00
2018-07-13T05:52:17.594Z,22.80
2018-07-13T05:55:11.299Z,23.20
2018-07-13T05:58:05.146Z,21.40
2018-07-13T06:00:58.882Z,21.40
2018-07-13T06:06:54.676Z,21.80
2018-07-13T06:12:48.531Z,21.60
2018-07-13T06:15:43.129Z,23.40
2018-07-13T06:18:35.085Z,23.00
2018-07-13T06:21:28.406Z,23.20
2018-07-13T06:24:25.976Z,23.60
2018-07-13T06:27:17.302Z,23.20
2018-07-13T06:30:11.225Z,22.60
2018-07-13T06:33:05.553Z,23.20
2018-07-13T06:35:56.457Z,24.00
2018-07-13T06:38:50.370Z,23.00
2018-07-13T06:44:37.247Z,23.60
2018-07-13T06:47:24.255Z,23.00
2018-07-13T06:50:10.223Z,24.40
2018-07-13T06:53:04.090Z,23.40
2018-07-13T06:55:57.719Z,24.00
2018-07-13T06:58:46.305Z,25.00
2018-07-13T07:04:44.159Z,26.80
2018-07-13T07:07:33.404Z,23.60
2018-07-13T07:10:16.565Z,23.60
2018-07-13T07:14:10.118Z,23.80
2018-07-13T07:16:57.300Z,22.60
2018-07-13T07:19:43.175Z,23.00
2018-07-13T07:22:30.113Z,23.00
2018-07-13T07:25:10.912Z,23.80
2018-07-13T07:27:53.748Z,26.00
2018-07-13T07:30:39.687Z,25.60
2018-07-13T07:33:28.015Z,26.80
2018-07-13T07:36:14.423Z,23.80
2018-07-13T07:39:09.706Z,24.00
2018-07-13T07:41:54.555Z,23.00
2018-07-13T07:44:37.507Z,25.60
2018-07-13T07:47:18.849Z,24.00
2018-07-13T07:49:59.260Z,24.40
2018-07-13T07:52:39.717Z,26.00
2018-07-13T07:55:24.182Z,25.60
2018-07-13T07:58:05.405Z,24.20
2018-07-13T08:00:48.843Z,24.00
2018-07-13T08:03:29.942Z,25.60
2018-07-13T08:06:14.325Z,25.60
2018-07-13T08:08:59.061Z,23.00
2018-07-13T08:11:46.759Z,24.40
2018-07-13T08:17:19.360Z,25.80
2018-07-13T08:20:07.290Z,22.40
2018-07-13T08:23:06.655Z,22.20
2018-07-13T08:25:57.915Z,22.20
2018-07-13T08:28:46.484Z,22.20
2018-07-13T08:31:34.265Z,23.00
2018-07-13T08:34:19.260Z,23.00
2018-07-13T08:37:07.777Z,24.00
2018-07-13T08:39:56.535Z,24.60
2018-07-13T08:42:42.652Z,23.80
2018-07-13T08:45:32.926Z,24.20
2018-07-13T08:48:17.885Z,24.80
2018-07-13T08:51:05.182Z,24.60
2018-07-13T08:53:52.922Z,22.20
2018-07-13T08:56:34.753Z,23.80
2018-07-13T08:59:20.103Z,23.20
2018-07-13T09:02:03.502Z,23.00
2018-07-13T09:04:50.645Z,23.80
2018-07-13T09:07:47.078Z,22.60
2018-07-13T09:16:38.506Z,24.80
2018-07-13T09:19:23.835Z,24.20
2018-07-13T09:22:06.282Z,26.60
2018-07-13T09:24:51.335Z,23.20
2018-07-13T09:27:36.845Z,26.20
2018-07-13T09:30:22.381Z,26.20
2018-07-13T09:33:10.833Z,27.00
2018-07-13T09:35:57.319Z,25.80
2018-07-13T09:38:46.256Z,25.20
2018-07-13T09:41:34.847Z,27.20
2018-07-13T09:47:32.343Z,27.60
2018-07-13T09:50:20.184Z,24.60
2018-07-13T09:53:07.516Z,25.60
2018-07-13T09:55:48.595Z,21.40
2018-07-13T09:58:37.911Z,21.00
2018-07-13T10:01:17.096Z,20.00
2018-07-13T10:03:55.859Z,17.60
2018-07-13T10:06:32.487Z,17.00
2018-07-13T10:09:10.092Z,16.20
2018-07-13T10:11:46.611Z,14.40
2018-07-13T10:14:21.177Z,11.20
2018-07-13T10:16:55.937Z,10.20
2018-07-13T10:19:31.660Z,11.20
2018-07-13T10:22:09.821Z,10.20
2018-07-13T10:24:44.504Z,10.60
2018-07-13T10:27:20.402Z,11.00
2018-07-13T10:29:57.214Z,7.60
2018-07-13T10:32:33.811Z,8.80
2018-07-13T10:35:11.604Z,8.00
2018-07-13T10:37:46.463Z,9.40
2018-07-13T10:40:18.873Z,9.60
2018-07-13T10:42:51.005Z,9.20
2018-07-13T10:45:24.992Z,9.00
2018-07-13T10:47:57.777Z,10.20
2018-07-13T10:50:32.313Z,10.40
2018-07-13T10:53:05.010Z,9.00
2018-07-13T10:55:37.818Z,14.80
2018-07-13T10:58:12.265Z,14.60
2018-07-13T11:00:48.415Z,17.40
2018-07-13T11:03:23.671Z,13.20
2018-07-13T11:05:57.040Z,17.00
2018-07-13T11:08:29.413Z,14.80
2018-07-13T11:11:02.373Z,15.60
2018-07-13T11:13:36.444Z,17.00
2018-07-13T11:16:09.973Z,16.60
2018-07-13T11:18:42.575Z,11.00
2018-07-13T11:21:14.771Z,12.60
2018-07-13T11:23:47.165Z,15.20
2018-07-13T11:26:20.223Z,14.20
2018-07-13T11:28:52.424Z,16.40
2018-07-13T11:31:25.406Z,16.40
2018-07-13T11:33:58.052Z,17.00
2018-07-13T11:36:30.345Z,20.40
2018-07-13T11:39:02.794Z,18.20
2018-07-13T11:41:35.393Z,17.40
2018-07-13T11:44:07.872Z,17.00
2018-07-13T11:46:39.993Z,15.00
2018-07-13T11:49:12.214Z,14.60
2018-07-13T11:51:44.801Z,14.20
2018-07-13T11:54:17.559Z,19.20
2018-07-13T11:56:50.249Z,23.00
2018-07-13T11:59:22.268Z,30.00
2018-07-13T12:01:55.112Z,27.20
2018-07-13T12:04:27.711Z,24.00
2018-07-13T12:07:00.014Z,24.00
2018-07-13T12:09:32.435Z,23.80
2018-07-13T12:12:04.950Z,21.00
2018-07-13T12:14:37.025Z,23.20
2018-07-13T12:17:10.069Z,21.20
2018-07-13T12:19:42.501Z,21.20
2018-07-13T12:22:14.978Z,20.20
2018-07-13T12:24:47.580Z,21.20
2018-07-13T12:27:20.399Z,20.00
2018-07-13T12:29:52.755Z,20.00
2018-07-13T12:32:25.735Z,17.80
2018-07-13T12:34:58.472Z,17.00
2018-07-13T12:37:31.124Z,18.80
2018-07-13T12:40:03.586Z,14.60
2018-07-13T12:42:40.894Z,16.00
2018-07-13T12:45:13.418Z,13.40
2018-07-13T12:47:46.412Z,16.00
2018-07-13T12:50:18.974Z,15.00
2018-07-13T12:52:52.619Z,17.00
2018-07-13T12:55:25.382Z,17.20
2018-07-13T12:57:58.185Z,14.20
2018-07-13T13:00:30.459Z,16.60
2018-07-13T13:03:02.147Z,16.60
2018-07-13T13:05:34.940Z,15.00
2018-07-13T13:08:07.159Z,17.80
2018-07-13T13:10:39.794Z,13.20
2018-07-13T13:13:14.315Z,12.80
2018-07-13T13:15:46.767Z,15.00
2018-07-13T13:18:19.786Z,15.20
2018-07-13T13:20:52.336Z,15.00
2018-07-13T13:23:25.119Z,13.00
2018-07-13T13:25:57.685Z,15.20
2018-07-13T13:28:30.549Z,14.40
2018-07-13T13:31:02.554Z,15.80
2018-07-13T13:33:40.163Z,19.80
2018-07-13T13:36:12.157Z,20.00
2018-07-13T13:38:45.405Z,19.20
2018-07-13T13:41:17.735Z,21.80
2018-07-13T13:43:50.875Z,16.60
2018-07-13T13:46:23.364Z,20.00
2018-07-13T13:48:56.200Z,19.00
2018-07-13T13:51:28.460Z,13.60
2018-07-13T13:54:00.681Z,17.00
2018-07-13T13:56:33.474Z,15.80
2018-07-13T13:59:06.493Z,15.60
2018-07-13T14:01:38.735Z,16.80
2018-07-13T14:04:11.852Z,17.00
2018-07-13T14:06:44.583Z,19.80
2018-07-13T14:09:17.555Z,17.20
2018-07-13T14:11:50.339Z,18.20
2018-07-13T14:14:23.319Z,18.80
2018-07-13T14:16:55.414Z,17.20
2018-07-13T14:19:27.795Z,18.20
2018-07-13T14:22:00.252Z,18.20
2018-07-13T14:24:32.607Z,16.40
2018-07-13T14:27:05.160Z,16.00
2018-07-13T14:29:37.507Z,15.00
2018-07-13T14:32:10.337Z,16.60
2018-07-13T14:34:43.510Z,16.80
2018-07-13T14:37:16.125Z,15.40
2018-07-13T14:39:48.688Z,15.60
2018-07-13T14:42:21.973Z,12.00
2018-07-13T14:44:54.280Z,17.00
2018-07-13T14:47:26.369Z,14.20
2018-07-13T14:49:58.370Z,15.60
2018-07-13T14:52:39.565Z,16.80
2018-07-13T14:55:11.885Z,16.40
2018-07-13T14:57:43.969Z,18.20
2018-07-13T15:00:16.608Z,15.00
2018-07-13T15:02:48.813Z,16.40
2018-07-13T15:05:21.751Z,16.20
2018-07-13T15:07:54.595Z,14.00
2018-07-13T15:10:27.702Z,14.00
2018-07-13T15:13:00.105Z,16.20
2018-07-13T15:15:36.980Z,16.00
2018-07-13T15:18:09.110Z,15.40
2018-07-13T15:20:42.886Z,16.00
2018-07-13T15:23:15.441Z,16.00
2018-07-13T15:25:48.188Z,17.20
2018-07-13T15:28:20.358Z,15.00
2018-07-13T15:30:53.219Z,13.60
2018-07-13T15:33:25.536Z,14.20
2018-07-13T15:35:57.963Z,14.60
2018-07-13T15:38:30.272Z,15.40
2018-07-13T15:41:03.407Z,17.20
2018-07-13T15:43:35.287Z,14.80
2018-07-13T15:46:17.412Z,13.40
2018-07-13T15:48:49.701Z,13.00
2018-07-13T15:51:22.827Z,13.80
2018-07-13T15:53:55.873Z,14.40
2018-07-13T15:56:28.948Z,13.20
2018-07-13T15:59:01.678Z,14.00
2018-07-13T16:01:34.953Z,13.60
2018-07-13T16:04:07.440Z,13.00
2018-07-13T16:06:40.781Z,13.00
2018-07-13T16:09:13.428Z,11.60
2018-07-13T16:11:45.667Z,12.20
2018-07-13T16:14:17.811Z,10.20
2018-07-13T16:16:50.842Z,11.00
2018-07-13T16:19:23.025Z,12.00
2018-07-13T16:21:56.320Z,11.60
2018-07-13T16:24:30.159Z,12.20
2018-07-13T16:27:02.916Z,10.80
2018-07-13T16:29:36.595Z,12.60
2018-07-13T16:32:09.133Z,11.60
2018-07-13T16:34:41.902Z,10.60
2018-07-13T16:37:14.390Z,11.80
2018-07-13T16:39:46.707Z,11.80
2018-07-13T16:42:19.568Z,12.00
2018-07-13T16:44:52.087Z,12.80
2018-07-13T16:47:25.176Z,12.00
2018-07-13T16:49:58.042Z,10.00
2018-07-13T16:52:30.898Z,11.40
2018-07-13T16:55:04.606Z,9.80
2018-07-13T16:57:37.580Z,10.80
2018-07-13T17:00:11.989Z,11.60
2018-07-13T17:02:45.021Z,9.20
2018-07-13T17:05:18.123Z,10.40
2018-07-13T17:07:51.579Z,10.00
2018-07-13T17:10:23.851Z,10.00
2018-07-13T17:12:56.399Z,9.20
2018-07-13T17:15:28.710Z,8.80
2018-07-13T17:18:01.047Z,8.60
2018-07-13T17:20:33.887Z,7.40
2018-07-13T17:23:06.390Z,6.80
2018-07-13T17:25:39.432Z,7.80
2018-07-13T17:28:12.179Z,7.20
2018-07-13T17:30:44.506Z,6.80
2018-07-13T17:33:17.739Z,8.20
2018-07-13T17:35:50.027Z,10.00
2018-07-13T17:38:22.379Z,9.00
2018-07-13T17:40:55.676Z,8.40
2018-07-13T17:43:28.180Z,8.00
2018-07-13T17:46:01.034Z,9.00
2018-07-13T17:48:33.378Z,8.80
2018-07-13T17:51:06.281Z,7.20
2018-07-13T17:53:39.104Z,9.60
2018-07-13T17:56:11.891Z,8.00
2018-07-13T17:58:44.448Z,9.80
2018-07-13T18:01:17.204Z,7.40
2018-07-13T18:06:26.647Z,9.60
2018-07-13T18:08:59.008Z,9.60
2018-07-13T18:11:31.222Z,8.00
2018-07-13T18:14:03.964Z,8.20
2018-07-13T18:16:36.311Z,10.00
2018-07-13T18:19:08.783Z,8.60
2018-07-13T18:21:41.365Z,10.00
2018-07-13T18:24:15.665Z,8.00
2018-07-13T18:26:53.636Z,9.00
2018-07-13T18:29:29.500Z,9.40
2018-07-13T18:32:02.153Z,10.40
2018-07-13T18:34:35.649Z,9.80
2018-07-13T18:37:09.785Z,10.40
2018-07-13T18:39:43.804Z,8.00
2018-07-13T18:42:17.318Z,9.00
2018-07-13T18:44:49.221Z,9.00
2018-07-13T18:47:21.628Z,10.00
2018-07-13T18:49:53.867Z,10.00
2018-07-13T18:52:26.840Z,9.60
2018-07-13T18:54:58.706Z,9.80
2018-07-13T18:57:30.914Z,8.20
2018-07-13T19:00:03.859Z,10.80
2018-07-13T19:02:35.867Z,9.20
2018-07-13T19:05:08.715Z,8.20
2018-07-13T19:07:42.870Z,8.00
2018-07-13T19:10:15.081Z,10.40
2018-07-13T19:12:47.392Z,9.20
2018-07-13T19:15:19.852Z,7.20
2018-07-13T19:17:52.338Z,8.00
2018-07-13T19:20:25.163Z,10.80
2018-07-13T19:22:58.017Z,8.40
2018-07-13T19:25:30.358Z,8.40
2018-07-13T19:28:02.498Z,8.80
2018-07-13T19:30:35.224Z,8.60
2018-07-13T19:33:08.111Z,9.40
2018-07-13T19:35:40.446Z,9.20
2018-07-13T19:38:13.219Z,6.20
2018-07-13T19:40:45.804Z,9.00
2018-07-13T19:43:17.748Z,10.00
2018-07-13T19:45:50.597Z,6.80
2018-07-13T19:48:23.598Z,10.20
2018-07-13T19:50:56.185Z,8.20
2018-07-13T19:53:28.817Z,10.20
2018-07-13T19:56:01.384Z,8.40
2018-07-13T19:58:33.789Z,9.00
2018-07-13T20:01:06.651Z,9.80
2018-07-13T20:03:38.756Z,9.00
2018-07-13T20:06:10.913Z,8.00
2018-07-13T20:08:43.808Z,9.60
2018-07-13T20:11:16.496Z,8.20
2018-07-13T20:13:48.849Z,7.40
2018-07-13T20:16:20.927Z,9.20
2018-07-13T20:18:53.467Z,9.00
2018-07-13T20:21:25.345Z,7.60
2018-07-13T20:23:57.666Z,8.80
2018-07-13T20:26:29.707Z,9.60
2018-07-13T20:29:01.998Z,10.00
2018-07-13T20:31:34.376Z,9.60
2018-07-13T20:34:06.973Z,5.40
2018-07-13T20:36:39.821Z,8.60
2018-07-13T20:39:12.577Z,9.20
2018-07-13T20:41:45.039Z,9.80
2018-07-13T20:44:17.563Z,9.40
2018-07-13T20:46:49.620Z,9.00
2018-07-13T20:49:21.803Z,9.00
2018-07-13T20:51:54.081Z,9.00
2018-07-13T20:54:26.458Z,10.80
2018-07-13T20:56:59.173Z,10.40
2018-07-13T20:59:31.692Z,10.00
2018-07-13T21:02:03.963Z,10.00
2018-07-13T21:04:36.789Z,9.40
2018-07-13T21:07:09.406Z,10.60
2018-07-13T21:09:42.586Z,10.80
2018-07-13T21:12:15.145Z,10.00
2018-07-13T21:14:48.059Z,9.40
2018-07-13T21:17:20.057Z,10.40
2018-07-13T21:19:53.091Z,10.40
2018-07-13T21:22:25.879Z,10.80
2018-07-13T21:24:58.315Z,9.20
2018-07-13T21:27:30.209Z,11.20
2018-07-13T21:30:02.872Z,11.00
2018-07-13T21:32:35.775Z,9.60
2018-07-13T21:35:08.181Z,9.80
2018-07-13T21:37:40.489Z,10.60
2018-07-13T21:40:13.251Z,10.40
2018-07-13T21:42:46.157Z,10.00
2018-07-13T21:45:18.366Z,11.20
2018-07-13T21:47:50.521Z,9.40
2018-07-13T21:50:23.582Z,10.60
2018-07-13T21:52:56.755Z,9.20
2018-07-13T21:55:29.153Z,8.20
2018-07-13T21:58:01.693Z,11.80
2018-07-13T22:00:34.743Z,10.20
2018-07-13T22:03:07.468Z,10.80
2018-07-13T22:05:40.333Z,10.40
2018-07-13T22:08:13.066Z,12.80
2018-07-13T22:10:45.325Z,12.60
2018-07-13T22:13:17.511Z,11.60
2018-07-13T22:15:50.579Z,11.80
2018-07-13T22:18:22.690Z,11.60
2018-07-13T22:20:55.842Z,12.20
2018-07-13T22:23:28.117Z,11.40
2018-07-13T22:26:00.514Z,10.60
2018-07-13T22:28:33.720Z,11.00
2018-07-13T22:31:06.183Z,11.00
2018-07-13T22:33:38.041Z,11.20
2018-07-13T22:36:10.242Z,13.60
2018-07-13T22:38:43.309Z,12.40
2018-07-13T22:41:15.557Z,12.00
2018-07-13T22:43:47.745Z,13.00
2018-07-13T22:46:20.983Z,12.60
2018-07-13T22:48:53.651Z,13.80
2018-07-13T22:51:26.504Z,11.80
2018-07-13T22:53:58.579Z,12.80
2018-07-13T22:56:31.471Z,14.80
2018-07-13T22:59:04.574Z,12.40
2018-07-13T23:01:36.890Z,14.60
2018-07-13T23:04:09.451Z,14.20
2018-07-13T23:06:42.106Z,12.00
2018-07-13T23:09:14.728Z,14.80
2018-07-13T23:11:47.396Z,13.00
2018-07-13T23:14:19.571Z,13.20
2018-07-13T23:16:52.125Z,15.40
2018-07-13T23:19:24.459Z,15.00
2018-07-13T23:21:58.075Z,15.40
2018-07-13T23:24:30.536Z,14.20
2018-07-13T23:27:03.549Z,13.80
2018-07-13T23:29:36.026Z,15.00
2018-07-13T23:32:08.852Z,15.00
2018-07-13T23:34:40.875Z,14.00
2018-07-13T23:37:13.127Z,13.20
2018-07-13T23:39:45.952Z,14.80
2018-07-13T23:42:18.806Z,14.40
2018-07-13T23:44:51.371Z,16.40
2018-07-13T23:47:23.513Z,12.60
2018-07-13T23:49:56.231Z,17.00
2018-07-13T23:52:29.000Z,15.20
2018-07-13T23:55:01.921Z,15.60
2018-07-13T23:57:34.133Z,14.60
